sensor_id;sensor_type;location;lat;lon;timestamp;P1;durP1;ratioP1;P2;durP2;ratioP2
45392;SDS011;31129;44.810;10.334;2023-04-10T00:00:07;4.30;;;3.00;;
45392;SDS011;31129;44.810;10.334;2023-04-10T00:02:33;7.60;;;3.35;;
45392;SDS011;31129;44.810;10.334;2023-04-10T00:05:00;4.53;;;3.17;;
45392;SDS011;31129;44.810;10.334;2023-04-10T00:07:25;5.28;;;3.10;;
45392;SDS011;31129;44.810;10.334;2023-04-10T00:09:51;3.33;;;3.00;;
45392;SDS011;31129;44.810;10.334;2023-04-10T00:12:17;4.88;;;3.20;;
45392;SDS011;31129;44.810;10.334;2023-04-10T00:14:42;4.50;;;2.88;;
45392;SDS011;31129;44.810;10.334;2023-04-10T00:17:08;3.55;;;2.70;;
45392;SDS011;31129;44.810;10.334;2023-04-10T00:19:33;6.05;;;3.50;;
45392;SDS011;31129;44.810;10.334;2023-04-10T00:21:59;3.80;;;3.00;;
45392;SDS011;31129;44.810;10.334;2023-04-10T00:24:24;5.00;;;3.17;;
45392;SDS011;31129;44.810;10.334;2023-04-10T00:26:50;5.50;;;3.72;;
45392;SDS011;31129;44.810;10.334;2023-04-10T00:29:15;3.60;;;3.30;;
45392;SDS011;31129;44.810;10.334;2023-04-10T00:31:44;4.45;;;3.25;;
45392;SDS011;31129;44.810;10.334;2023-04-10T00:34:09;6.88;;;3.20;;
45392;SDS011;31129;44.810;10.334;2023-04-10T00:36:35;4.35;;;3.20;;
45392;SDS011;31129;44.810;10.334;2023-04-10T00:39:00;4.72;;;3.17;;
45392;SDS011;31129;44.810;10.334;2023-04-10T00:41:26;4.13;;;2.95;;
45392;SDS011;31129;44.810;10.334;2023-04-10T00:43:56;10.48;;;3.95;;
45392;SDS011;31129;44.810;10.334;2023-04-10T00:46:25;4.10;;;3.17;;
45392;SDS011;31129;44.810;10.334;2023-04-10T00:48:51;10.23;;;3.95;;
45392;SDS011;31129;44.810;10.334;2023-04-10T00:51:18;3.97;;;3.58;;
45392;SDS011;31129;44.810;10.334;2023-04-10T00:53:50;5.63;;;3.88;;
45392;SDS011;31129;44.810;10.334;2023-04-10T00:56:16;5.68;;;3.13;;
45392;SDS011;31129;44.810;10.334;2023-04-10T00:58:42;6.07;;;3.95;;
45392;SDS011;31129;44.810;10.334;2023-04-10T01:01:08;5.30;;;3.13;;
45392;SDS011;31129;44.810;10.334;2023-04-10T01:03:33;3.92;;;3.20;;
45392;SDS011;31129;44.810;10.334;2023-04-10T01:20:08;4.00;;;3.60;;
45392;SDS011;31129;44.810;10.334;2023-04-10T01:22:45;6.40;;;4.03;;
45392;SDS011;31129;44.810;10.334;2023-04-10T01:28:28;6.60;;;4.10;;
45392;SDS011;31129;44.810;10.334;2023-04-10T01:31:03;7.50;;;3.83;;
45392;SDS011;31129;44.810;10.334;2023-04-10T01:33:33;6.57;;;3.85;;
45392;SDS011;31129;44.810;10.334;2023-04-10T01:36:03;6.80;;;3.80;;
45392;SDS011;31129;44.810;10.334;2023-04-10T01:38:31;4.55;;;3.30;;
45392;SDS011;31129;44.810;10.334;2023-04-10T01:40:57;6.15;;;3.65;;
45392;SDS011;31129;44.810;10.334;2023-04-10T01:43:27;5.45;;;3.80;;
45392;SDS011;31129;44.810;10.334;2023-04-10T01:45:55;6.35;;;4.25;;
45392;SDS011;31129;44.810;10.334;2023-04-10T01:48:22;5.13;;;3.80;;
45392;SDS011;31129;44.810;10.334;2023-04-10T01:50:48;4.78;;;3.97;;
45392;SDS011;31129;44.810;10.334;2023-04-10T01:53:14;5.95;;;4.22;;
45392;SDS011;31129;44.810;10.334;2023-04-10T01:55:41;5.35;;;3.80;;
45392;SDS011;31129;44.810;10.334;2023-04-10T01:58:08;4.95;;;4.28;;
45392;SDS011;31129;44.810;10.334;2023-04-10T02:00:41;4.75;;;3.95;;
45392;SDS011;31129;44.810;10.334;2023-04-10T02:03:12;5.25;;;4.25;;
45392;SDS011;31129;44.810;10.334;2023-04-10T02:05:45;7.45;;;4.20;;
45392;SDS011;31129;44.810;10.334;2023-04-10T02:08:20;6.25;;;4.43;;
45392;SDS011;31129;44.810;10.334;2023-04-10T02:11:36;7.50;;;4.78;;
45392;SDS011;31129;44.810;10.334;2023-04-10T02:13:49;6.65;;;4.50;;
45392;SDS011;31129;44.810;10.334;2023-04-10T02:16:19;6.60;;;4.40;;
45392;SDS011;31129;44.810;10.334;2023-04-10T02:18:46;6.07;;;4.32;;
45392;SDS011;31129;44.810;10.334;2023-04-10T02:21:14;6.82;;;4.32;;
45392;SDS011;31129;44.810;10.334;2023-04-10T02:23:40;8.68;;;4.88;;
45392;SDS011;31129;44.810;10.334;2023-04-10T02:26:06;10.18;;;4.50;;
45392;SDS011;31129;44.810;10.334;2023-04-10T02:28:32;7.10;;;5.20;;
45392;SDS011;31129;44.810;10.334;2023-04-10T02:30:58;5.60;;;4.35;;
45392;SDS011;31129;44.810;10.334;2023-04-10T02:33:23;6.97;;;4.60;;
45392;SDS011;31129;44.810;10.334;2023-04-10T02:35:49;8.02;;;4.53;;
45392;SDS011;31129;44.810;10.334;2023-04-10T02:38:14;7.28;;;4.53;;
45392;SDS011;31129;44.810;10.334;2023-04-10T02:40:40;6.60;;;4.47;;
45392;SDS011;31129;44.810;10.334;2023-04-10T02:43:11;5.53;;;4.18;;
45392;SDS011;31129;44.810;10.334;2023-04-10T02:45:36;4.65;;;4.00;;
45392;SDS011;31129;44.810;10.334;2023-04-10T02:48:03;6.97;;;4.28;;
45392;SDS011;31129;44.810;10.334;2023-04-10T02:50:29;4.43;;;3.83;;
45392;SDS011;31129;44.810;10.334;2023-04-10T02:52:56;10.27;;;5.93;;
45392;SDS011;31129;44.810;10.334;2023-04-10T02:55:22;7.22;;;4.90;;
45392;SDS011;31129;44.810;10.334;2023-04-10T02:57:47;6.15;;;4.60;;
45392;SDS011;31129;44.810;10.334;2023-04-10T03:00:12;8.40;;;4.53;;
45392;SDS011;31129;44.810;10.334;2023-04-10T03:03:07;6.25;;;4.45;;
45392;SDS011;31129;44.810;10.334;2023-04-10T03:05:40;5.65;;;4.80;;
45392;SDS011;31129;44.810;10.334;2023-04-10T03:08:06;6.28;;;4.60;;
45392;SDS011;31129;44.810;10.334;2023-04-10T03:10:31;5.65;;;4.57;;
45392;SDS011;31129;44.810;10.334;2023-04-10T03:12:57;5.60;;;4.20;;
45392;SDS011;31129;44.810;10.334;2023-04-10T03:15:22;5.85;;;4.35;;
45392;SDS011;31129;44.810;10.334;2023-04-10T03:17:48;5.28;;;4.45;;
45392;SDS011;31129;44.810;10.334;2023-04-10T03:20:13;6.35;;;4.25;;
45392;SDS011;31129;44.810;10.334;2023-04-10T03:22:40;6.40;;;4.70;;
45392;SDS011;31129;44.810;10.334;2023-04-10T03:25:07;9.15;;;5.32;;
45392;SDS011;31129;44.810;10.334;2023-04-10T03:27:32;7.28;;;4.30;;
45392;SDS011;31129;44.810;10.334;2023-04-10T03:29:59;6.50;;;4.70;;
45392;SDS011;31129;44.810;10.334;2023-04-10T03:32:25;5.97;;;4.90;;
45392;SDS011;31129;44.810;10.334;2023-04-10T03:34:52;6.03;;;4.70;;
45392;SDS011;31129;44.810;10.334;2023-04-10T03:37:18;7.00;;;4.90;;
45392;SDS011;31129;44.810;10.334;2023-04-10T03:39:44;6.35;;;5.18;;
45392;SDS011;31129;44.810;10.334;2023-04-10T03:47:06;5.50;;;4.47;;
45392;SDS011;31129;44.810;10.334;2023-04-10T03:49:31;6.55;;;5.03;;
45392;SDS011;31129;44.810;10.334;2023-04-10T03:52:06;6.82;;;4.93;;
45392;SDS011;31129;44.810;10.334;2023-04-10T03:54:31;10.23;;;4.72;;
45392;SDS011;31129;44.810;10.334;2023-04-10T03:56:56;7.28;;;5.05;;
45392;SDS011;31129;44.810;10.334;2023-04-10T03:59:22;7.47;;;5.20;;
45392;SDS011;31129;44.810;10.334;2023-04-10T04:01:47;6.70;;;5.43;;
45392;SDS011;31129;44.810;10.334;2023-04-10T04:04:13;8.82;;;5.53;;
45392;SDS011;31129;44.810;10.334;2023-04-10T04:07:04;5.65;;;4.40;;
45392;SDS011;31129;44.810;10.334;2023-04-10T04:09:59;7.47;;;4.82;;
45392;SDS011;31129;44.810;10.334;2023-04-10T04:12:45;7.78;;;5.68;;
45392;SDS011;31129;44.810;10.334;2023-04-10T04:15:25;6.53;;;5.00;;
45392;SDS011;31129;44.810;10.334;2023-04-10T04:18:03;7.78;;;4.78;;
45392;SDS011;31129;44.810;10.334;2023-04-10T04:20:45;5.90;;;4.82;;
45392;SDS011;31129;44.810;10.334;2023-04-10T04:23:41;7.35;;;5.50;;
45392;SDS011;31129;44.810;10.334;2023-04-10T04:26:11;6.95;;;5.47;;
45392;SDS011;31129;44.810;10.334;2023-04-10T04:28:49;7.90;;;5.35;;
45392;SDS011;31129;44.810;10.334;2023-04-10T04:31:28;5.93;;;4.97;;
45392;SDS011;31129;44.810;10.334;2023-04-10T04:34:14;7.50;;;5.25;;
45392;SDS011;31129;44.810;10.334;2023-04-10T04:37:02;7.10;;;4.90;;
45392;SDS011;31129;44.810;10.334;2023-04-10T04:39:38;9.00;;;5.55;;
45392;SDS011;31129;44.810;10.334;2023-04-10T04:42:24;8.82;;;5.05;;
45392;SDS011;31129;44.810;10.334;2023-04-10T04:45:21;7.20;;;5.53;;
45392;SDS011;31129;44.810;10.334;2023-04-10T04:48:27;8.25;;;5.82;;
45392;SDS011;31129;44.810;10.334;2023-04-10T04:51:00;7.13;;;5.00;;
45392;SDS011;31129;44.810;10.334;2023-04-10T04:53:48;8.63;;;5.57;;
45392;SDS011;31129;44.810;10.334;2023-04-10T04:56:32;6.40;;;4.82;;
45392;SDS011;31129;44.810;10.334;2023-04-10T04:59:16;8.68;;;5.60;;
45392;SDS011;31129;44.810;10.334;2023-04-10T05:01:55;9.05;;;5.20;;
45392;SDS011;31129;44.810;10.334;2023-04-10T05:04:33;7.45;;;5.95;;
45392;SDS011;31129;44.810;10.334;2023-04-10T05:07:10;9.85;;;5.55;;
45392;SDS011;31129;44.810;10.334;2023-04-10T05:09:44;7.78;;;5.00;;
45392;SDS011;31129;44.810;10.334;2023-04-10T05:12:30;12.07;;;5.28;;
45392;SDS011;31129;44.810;10.334;2023-04-10T05:15:01;7.45;;;5.65;;
45392;SDS011;31129;44.810;10.334;2023-04-10T05:17:41;5.97;;;4.85;;
45392;SDS011;31129;44.810;10.334;2023-04-10T05:20:15;9.88;;;4.90;;
45392;SDS011;31129;44.810;10.334;2023-04-10T05:23:10;6.88;;;5.10;;
45392;SDS011;31129;44.810;10.334;2023-04-10T05:25:54;6.78;;;4.80;;
45392;SDS011;31129;44.810;10.334;2023-04-10T05:28:36;8.00;;;5.20;;
45392;SDS011;31129;44.810;10.334;2023-04-10T05:31:20;9.23;;;5.55;;
45392;SDS011;31129;44.810;10.334;2023-04-10T05:33:50;7.55;;;5.15;;
45392;SDS011;31129;44.810;10.334;2023-04-10T05:36:31;14.45;;;5.30;;
45392;SDS011;31129;44.810;10.334;2023-04-10T05:39:15;6.47;;;5.25;;
45392;SDS011;31129;44.810;10.334;2023-04-10T05:41:57;6.25;;;5.00;;
45392;SDS011;31129;44.810;10.334;2023-04-10T05:44:41;7.78;;;5.45;;
45392;SDS011;31129;44.810;10.334;2023-04-10T05:47:24;6.43;;;5.20;;
45392;SDS011;31129;44.810;10.334;2023-04-10T05:50:08;8.10;;;5.68;;
45392;SDS011;31129;44.810;10.334;2023-04-10T05:52:57;7.60;;;5.30;;
45392;SDS011;31129;44.810;10.334;2023-04-10T05:55:49;9.30;;;5.18;;
45392;SDS011;31129;44.810;10.334;2023-04-10T05:58:33;11.23;;;5.60;;
45392;SDS011;31129;44.810;10.334;2023-04-10T06:01:28;8.27;;;5.35;;
45392;SDS011;31129;44.810;10.334;2023-04-10T06:03:57;7.75;;;5.53;;
45392;SDS011;31129;44.810;10.334;2023-04-10T06:06:24;7.20;;;5.13;;
45392;SDS011;31129;44.810;10.334;2023-04-10T06:08:50;10.00;;;5.65;;
45392;SDS011;31129;44.810;10.334;2023-04-10T06:11:15;9.18;;;5.80;;
45392;SDS011;31129;44.810;10.334;2023-04-10T06:13:45;8.35;;;4.85;;
45392;SDS011;31129;44.810;10.334;2023-04-10T06:16:11;7.78;;;5.20;;
45392;SDS011;31129;44.810;10.334;2023-04-10T06:18:37;9.45;;;5.72;;
45392;SDS011;31129;44.810;10.334;2023-04-10T06:21:02;7.13;;;5.40;;
45392;SDS011;31129;44.810;10.334;2023-04-10T06:23:28;9.57;;;5.88;;
45392;SDS011;31129;44.810;10.334;2023-04-10T06:25:54;8.00;;;5.60;;
45392;SDS011;31129;44.810;10.334;2023-04-10T06:28:23;7.93;;;5.32;;
45392;SDS011;31129;44.810;10.334;2023-04-10T06:30:53;9.18;;;5.82;;
45392;SDS011;31129;44.810;10.334;2023-04-10T06:33:21;9.18;;;5.90;;
45392;SDS011;31129;44.810;10.334;2023-04-10T06:35:47;7.07;;;5.22;;
45392;SDS011;31129;44.810;10.334;2023-04-10T06:38:13;6.75;;;4.72;;
45392;SDS011;31129;44.810;10.334;2023-04-10T06:40:39;9.68;;;5.40;;
45392;SDS011;31129;44.810;10.334;2023-04-10T06:43:05;7.60;;;5.07;;
45392;SDS011;31129;44.810;10.334;2023-04-10T06:45:36;8.82;;;4.93;;
45392;SDS011;31129;44.810;10.334;2023-04-10T06:48:02;7.55;;;5.60;;
45392;SDS011;31129;44.810;10.334;2023-04-10T06:50:27;8.40;;;5.38;;
45392;SDS011;31129;44.810;10.334;2023-04-10T06:52:53;8.35;;;5.43;;
45392;SDS011;31129;44.810;10.334;2023-04-10T06:55:20;7.72;;;5.32;;
45392;SDS011;31129;44.810;10.334;2023-04-10T06:57:45;8.02;;;5.45;;
45392;SDS011;31129;44.810;10.334;2023-04-10T07:00:11;7.47;;;5.82;;
45392;SDS011;31129;44.810;10.334;2023-04-10T07:02:36;7.40;;;5.05;;
45392;SDS011;31129;44.810;10.334;2023-04-10T07:05:02;7.57;;;5.32;;
45392;SDS011;31129;44.810;10.334;2023-04-10T07:07:27;8.23;;;5.55;;
45392;SDS011;31129;44.810;10.334;2023-04-10T07:09:53;8.40;;;5.22;;
45392;SDS011;31129;44.810;10.334;2023-04-10T07:12:18;7.78;;;4.85;;
45392;SDS011;31129;44.810;10.334;2023-04-10T07:14:44;7.75;;;5.28;;
45392;SDS011;31129;44.810;10.334;2023-04-10T07:17:09;6.10;;;4.50;;
45392;SDS011;31129;44.810;10.334;2023-04-10T07:19:34;8.40;;;4.82;;
45392;SDS011;31129;44.810;10.334;2023-04-10T07:22:01;8.95;;;4.80;;
45392;SDS011;31129;44.810;10.334;2023-04-10T07:24:27;7.47;;;4.75;;
45392;SDS011;31129;44.810;10.334;2023-04-10T07:26:52;5.90;;;4.53;;
45392;SDS011;31129;44.810;10.334;2023-04-10T07:29:18;7.60;;;4.55;;
45392;SDS011;31129;44.810;10.334;2023-04-10T07:31:46;5.38;;;4.53;;
45392;SDS011;31129;44.810;10.334;2023-04-10T07:34:12;7.47;;;4.60;;
45392;SDS011;31129;44.810;10.334;2023-04-10T07:36:37;9.82;;;4.32;;
45392;SDS011;31129;44.810;10.334;2023-04-10T07:39:03;6.45;;;5.13;;
45392;SDS011;31129;44.810;10.334;2023-04-10T07:41:28;5.32;;;4.05;;
45392;SDS011;31129;44.810;10.334;2023-04-10T07:43:54;8.63;;;4.13;;
45392;SDS011;31129;44.810;10.334;2023-04-10T07:46:19;7.35;;;3.60;;
45392;SDS011;31129;44.810;10.334;2023-04-10T07:48:45;5.65;;;3.80;;
45392;SDS011;31129;44.810;10.334;2023-04-10T07:51:11;5.30;;;3.92;;
45392;SDS011;31129;44.810;10.334;2023-04-10T07:53:37;6.07;;;4.13;;
45392;SDS011;31129;44.810;10.334;2023-04-10T07:56:06;6.15;;;4.50;;
45392;SDS011;31129;44.810;10.334;2023-04-10T07:58:31;8.05;;;3.65;;
45392;SDS011;31129;44.810;10.334;2023-04-10T08:00:57;6.50;;;3.53;;
45392;SDS011;31129;44.810;10.334;2023-04-10T08:03:22;7.07;;;3.65;;
45392;SDS011;31129;44.810;10.334;2023-04-10T08:05:48;6.88;;;4.07;;
45392;SDS011;31129;44.810;10.334;2023-04-10T08:08:14;6.05;;;3.53;;
45392;SDS011;31129;44.810;10.334;2023-04-10T08:10:40;3.65;;;2.85;;
45392;SDS011;31129;44.810;10.334;2023-04-10T08:15:34;4.45;;;3.35;;
45392;SDS011;31129;44.810;10.334;2023-04-10T08:17:59;5.07;;;3.45;;
45392;SDS011;31129;44.810;10.334;2023-04-10T08:20:25;6.65;;;3.35;;
45392;SDS011;31129;44.810;10.334;2023-04-10T08:22:50;6.05;;;3.47;;
45392;SDS011;31129;44.810;10.334;2023-04-10T08:25:15;5.50;;;3.60;;
45392;SDS011;31129;44.810;10.334;2023-04-10T08:27:41;5.28;;;2.78;;
45392;SDS011;31129;44.810;10.334;2023-04-10T08:30:06;3.88;;;3.00;;
45392;SDS011;31129;44.810;10.334;2023-04-10T08:32:32;5.40;;;3.13;;
45392;SDS011;31129;44.810;10.334;2023-04-10T08:34:58;4.80;;;2.65;;
45392;SDS011;31129;44.810;10.334;2023-04-10T08:37:24;4.07;;;2.92;;
45392;SDS011;31129;44.810;10.334;2023-04-10T08:39:50;9.63;;;3.47;;
45392;SDS011;31129;44.810;10.334;2023-04-10T08:42:16;10.73;;;4.28;;
45392;SDS011;31129;44.810;10.334;2023-04-10T08:44:41;4.53;;;3.42;;
45392;SDS011;31129;44.810;10.334;2023-04-10T08:47:07;5.00;;;3.50;;
45392;SDS011;31129;44.810;10.334;2023-04-10T08:52:21;8.13;;;3.72;;
45392;SDS011;31129;44.810;10.334;2023-04-10T08:54:54;6.65;;;3.45;;
45392;SDS011;31129;44.810;10.334;2023-04-10T08:57:20;5.05;;;3.67;;
45392;SDS011;31129;44.810;10.334;2023-04-10T08:59:49;4.63;;;3.70;;
45392;SDS011;31129;44.810;10.334;2023-04-10T09:02:18;5.50;;;3.75;;
45392;SDS011;31129;44.810;10.334;2023-04-10T09:04:47;6.88;;;3.80;;
45392;SDS011;31129;44.810;10.334;2023-04-10T09:07:14;6.30;;;3.33;;
45392;SDS011;31129;44.810;10.334;2023-04-10T09:09:40;5.85;;;3.55;;
45392;SDS011;31129;44.810;10.334;2023-04-10T09:12:06;5.50;;;3.40;;
45392;SDS011;31129;44.810;10.334;2023-04-10T09:14:32;5.10;;;3.33;;
45392;SDS011;31129;44.810;10.334;2023-04-10T09:19:44;9.10;;;3.30;;
45392;SDS011;31129;44.810;10.334;2023-04-10T09:22:11;5.67;;;3.93;;
45392;SDS011;31129;44.810;10.334;2023-04-10T09:24:38;5.45;;;3.42;;
45392;SDS011;31129;44.810;10.334;2023-04-10T09:27:04;5.60;;;4.22;;
45392;SDS011;31129;44.810;10.334;2023-04-10T09:29:44;6.75;;;3.28;;
45392;SDS011;31129;44.810;10.334;2023-04-10T09:32:28;5.22;;;3.60;;
45392;SDS011;31129;44.810;10.334;2023-04-10T09:35:02;5.55;;;3.90;;
45392;SDS011;31129;44.810;10.334;2023-04-10T09:37:30;3.35;;;3.03;;
45392;SDS011;31129;44.810;10.334;2023-04-10T09:39:58;4.88;;;3.40;;
45392;SDS011;31129;44.810;10.334;2023-04-10T09:42:34;5.57;;;3.25;;
45392;SDS011;31129;44.810;10.334;2023-04-10T09:45:02;7.50;;;3.45;;
45392;SDS011;31129;44.810;10.334;2023-04-10T09:47:28;4.13;;;3.00;;
45392;SDS011;31129;44.810;10.334;2023-04-10T09:49:55;3.58;;;3.05;;
45392;SDS011;31129;44.810;10.334;2023-04-10T09:52:25;6.93;;;3.40;;
45392;SDS011;31129;44.810;10.334;2023-04-10T09:54:52;5.65;;;3.78;;
45392;SDS011;31129;44.810;10.334;2023-04-10T09:57:23;4.00;;;3.03;;
45392;SDS011;31129;44.810;10.334;2023-04-10T09:59:50;5.65;;;3.00;;
45392;SDS011;31129;44.810;10.334;2023-04-10T10:02:21;5.90;;;3.63;;
45392;SDS011;31129;44.810;10.334;2023-04-10T10:04:47;4.27;;;3.17;;
45392;SDS011;31129;44.810;10.334;2023-04-10T10:07:18;3.88;;;2.97;;
45392;SDS011;31129;44.810;10.334;2023-04-10T10:09:45;4.20;;;3.10;;
45392;SDS011;31129;44.810;10.334;2023-04-10T10:12:12;3.15;;;2.85;;
45392;SDS011;31129;44.810;10.334;2023-04-10T10:17:49;7.65;;;2.92;;
45392;SDS011;31129;44.810;10.334;2023-04-10T10:20:25;3.75;;;2.85;;
45392;SDS011;31129;44.810;10.334;2023-04-10T10:22:55;3.47;;;3.00;;
45392;SDS011;31129;44.810;10.334;2023-04-10T10:25:22;4.35;;;2.92;;
45392;SDS011;31129;44.810;10.334;2023-04-10T10:27:48;3.88;;;3.03;;
45392;SDS011;31129;44.810;10.334;2023-04-10T10:30:17;8.25;;;2.88;;
45392;SDS011;31129;44.810;10.334;2023-04-10T10:32:44;3.50;;;2.97;;
45392;SDS011;31129;44.810;10.334;2023-04-10T10:35:11;3.38;;;2.58;;
45392;SDS011;31129;44.810;10.334;2023-04-10T10:37:37;3.75;;;2.70;;
45392;SDS011;31129;44.810;10.334;2023-04-10T10:40:15;5.28;;;3.03;;
45392;SDS011;31129;44.810;10.334;2023-04-10T10:48:27;10.27;;;5.75;;
45392;SDS011;31129;44.810;10.334;2023-04-10T10:50:56;3.90;;;3.28;;
45392;SDS011;31129;44.810;10.334;2023-04-10T10:58:46;4.72;;;3.55;;
45392;SDS011;31129;44.810;10.334;2023-04-10T11:01:13;4.00;;;3.33;;
45392;SDS011;31129;44.810;10.334;2023-04-10T11:03:39;7.32;;;3.33;;
45392;SDS011;31129;44.810;10.334;2023-04-10T11:06:09;4.30;;;3.38;;
45392;SDS011;31129;44.810;10.334;2023-04-10T11:08:52;3.58;;;3.17;;
45392;SDS011;31129;44.810;10.334;2023-04-10T11:19:00;6.68;;;3.20;;
45392;SDS011;31129;44.810;10.334;2023-04-10T11:21:26;3.85;;;3.08;;
45392;SDS011;31129;44.810;10.334;2023-04-10T11:29:00;4.97;;;3.47;;
45392;SDS011;31129;44.810;10.334;2023-04-10T11:31:26;6.05;;;3.67;;
45392;SDS011;31129;44.810;10.334;2023-04-10T11:36:21;5.88;;;3.70;;
45392;SDS011;31129;44.810;10.334;2023-04-10T11:41:26;6.07;;;3.63;;
45392;SDS011;31129;44.810;10.334;2023-04-10T11:43:53;4.18;;;3.72;;
45392;SDS011;31129;44.810;10.334;2023-04-10T11:46:18;4.80;;;3.60;;
45392;SDS011;31129;44.810;10.334;2023-04-10T11:48:44;7.43;;;3.60;;
45392;SDS011;31129;44.810;10.334;2023-04-10T11:51:10;6.10;;;3.60;;
45392;SDS011;31129;44.810;10.334;2023-04-10T11:53:38;6.25;;;3.67;;
45392;SDS011;31129;44.810;10.334;2023-04-10T11:56:17;4.18;;;3.70;;
45392;SDS011;31129;44.810;10.334;2023-04-10T11:58:48;5.45;;;3.88;;
45392;SDS011;31129;44.810;10.334;2023-04-10T12:01:19;5.65;;;3.20;;
45392;SDS011;31129;44.810;10.334;2023-04-10T12:03:45;4.82;;;3.28;;
45392;SDS011;31129;44.810;10.334;2023-04-10T12:06:12;5.55;;;3.88;;
45392;SDS011;31129;44.810;10.334;2023-04-10T12:08:39;5.32;;;3.25;;
45392;SDS011;31129;44.810;10.334;2023-04-10T12:11:13;3.65;;;3.10;;
45392;SDS011;31129;44.810;10.334;2023-04-10T12:13:41;3.63;;;3.08;;
45392;SDS011;31129;44.810;10.334;2023-04-10T12:16:07;6.07;;;3.15;;
45392;SDS011;31129;44.810;10.334;2023-04-10T12:18:34;4.65;;;3.63;;
45392;SDS011;31129;44.810;10.334;2023-04-10T12:21:00;5.60;;;4.07;;
45392;SDS011;31129;44.810;10.334;2023-04-10T12:23:28;6.78;;;4.03;;
45392;SDS011;31129;44.810;10.334;2023-04-10T12:26:04;3.67;;;3.28;;
45392;SDS011;31129;44.810;10.334;2023-04-10T12:28:34;6.20;;;3.78;;
45392;SDS011;31129;44.810;10.334;2023-04-10T12:31:00;6.53;;;3.63;;
45392;SDS011;31129;44.810;10.334;2023-04-10T12:33:27;4.30;;;3.20;;
45392;SDS011;31129;44.810;10.334;2023-04-10T12:35:53;3.85;;;3.10;;
45392;SDS011;31129;44.810;10.334;2023-04-10T12:38:34;5.40;;;3.20;;
45392;SDS011;31129;44.810;10.334;2023-04-10T12:41:00;7.28;;;2.95;;
45392;SDS011;31129;44.810;10.334;2023-04-10T12:43:33;5.10;;;3.22;;
45392;SDS011;31129;44.810;10.334;2023-04-10T12:46:00;3.40;;;2.80;;
45392;SDS011;31129;44.810;10.334;2023-04-10T12:48:26;4.00;;;3.40;;
45392;SDS011;31129;44.810;10.334;2023-04-10T12:50:52;3.70;;;3.33;;
45392;SDS011;31129;44.810;10.334;2023-04-10T12:53:17;7.50;;;3.60;;
45392;SDS011;31129;44.810;10.334;2023-04-10T12:58:42;5.85;;;3.00;;
45392;SDS011;31129;44.810;10.334;2023-04-10T13:01:08;4.95;;;2.85;;
45392;SDS011;31129;44.810;10.334;2023-04-10T13:03:34;4.60;;;3.33;;
45392;SDS011;31129;44.810;10.334;2023-04-10T13:06:05;4.05;;;3.53;;
45392;SDS011;31129;44.810;10.334;2023-04-10T13:08:31;5.10;;;3.00;;
45392;SDS011;31129;44.810;10.334;2023-04-10T13:10:59;4.55;;;2.53;;
45392;SDS011;31129;44.810;10.334;2023-04-10T13:13:28;3.10;;;2.80;;
45392;SDS011;31129;44.810;10.334;2023-04-10T13:15:55;7.68;;;2.83;;
45392;SDS011;31129;44.810;10.334;2023-04-10T13:18:20;5.15;;;3.08;;
45392;SDS011;31129;44.810;10.334;2023-04-10T13:20:46;4.78;;;2.90;;
45392;SDS011;31129;44.810;10.334;2023-04-10T13:23:11;4.10;;;2.78;;
45392;SDS011;31129;44.810;10.334;2023-04-10T13:25:37;4.00;;;2.65;;
45392;SDS011;31129;44.810;10.334;2023-04-10T13:28:04;3.90;;;3.15;;
45392;SDS011;31129;44.810;10.334;2023-04-10T13:30:39;3.85;;;2.88;;
45392;SDS011;31129;44.810;10.334;2023-04-10T13:33:06;4.80;;;2.92;;
45392;SDS011;31129;44.810;10.334;2023-04-10T13:35:32;3.42;;;2.63;;
45392;SDS011;31129;44.810;10.334;2023-04-10T13:37:59;4.70;;;2.88;;
45392;SDS011;31129;44.810;10.334;2023-04-10T13:40:24;3.15;;;2.53;;
45392;SDS011;31129;44.810;10.334;2023-04-10T13:42:50;4.93;;;2.80;;
45392;SDS011;31129;44.810;10.334;2023-04-10T13:45:15;2.67;;;2.22;;
45392;SDS011;31129;44.810;10.334;2023-04-10T13:47:41;2.72;;;2.50;;
45392;SDS011;31129;44.810;10.334;2023-04-10T13:50:06;3.30;;;2.55;;
45392;SDS011;31129;44.810;10.334;2023-04-10T13:52:32;7.55;;;3.00;;
45392;SDS011;31129;44.810;10.334;2023-04-10T13:54:58;5.32;;;2.60;;
45392;SDS011;31129;44.810;10.334;2023-04-10T13:57:23;4.55;;;2.97;;
45392;SDS011;31129;44.810;10.334;2023-04-10T13:59:48;3.30;;;2.95;;
45392;SDS011;31129;44.810;10.334;2023-04-10T14:02:14;5.00;;;2.92;;
45392;SDS011;31129;44.810;10.334;2023-04-10T14:04:39;3.00;;;2.70;;
45392;SDS011;31129;44.810;10.334;2023-04-10T14:07:07;3.83;;;2.33;;
45392;SDS011;31129;44.810;10.334;2023-04-10T14:09:33;3.75;;;2.90;;
45392;SDS011;31129;44.810;10.334;2023-04-10T14:12:01;5.75;;;2.40;;
45392;SDS011;31129;44.810;10.334;2023-04-10T14:14:27;3.72;;;2.92;;
45392;SDS011;31129;44.810;10.334;2023-04-10T14:16:52;5.10;;;2.67;;
45392;SDS011;31129;44.810;10.334;2023-04-10T14:19:18;3.38;;;2.60;;
45392;SDS011;31129;44.810;10.334;2023-04-10T14:21:43;3.45;;;2.70;;
45392;SDS011;31129;44.810;10.334;2023-04-10T14:24:09;5.40;;;2.65;;
45392;SDS011;31129;44.810;10.334;2023-04-10T14:26:35;3.88;;;2.55;;
45392;SDS011;31129;44.810;10.334;2023-04-10T14:29:00;4.07;;;3.13;;
45392;SDS011;31129;44.810;10.334;2023-04-10T14:31:26;3.20;;;2.60;;
45392;SDS011;31129;44.810;10.334;2023-04-10T14:33:51;4.78;;;2.58;;
45392;SDS011;31129;44.810;10.334;2023-04-10T14:36:16;3.60;;;2.33;;
45392;SDS011;31129;44.810;10.334;2023-04-10T14:38:42;9.73;;;5.82;;
45392;SDS011;31129;44.810;10.334;2023-04-10T14:41:07;5.28;;;2.45;;
45392;SDS011;31129;44.810;10.334;2023-04-10T14:43:33;2.28;;;2.00;;
45392;SDS011;31129;44.810;10.334;2023-04-10T14:45:58;2.28;;;2.00;;
45392;SDS011;31129;44.810;10.334;2023-04-10T14:48:24;3.78;;;2.33;;
45392;SDS011;31129;44.810;10.334;2023-04-10T14:50:49;2.60;;;2.20;;
45392;SDS011;31129;44.810;10.334;2023-04-10T14:53:14;2.15;;;1.98;;
45392;SDS011;31129;44.810;10.334;2023-04-10T14:55:40;2.90;;;2.17;;
45392;SDS011;31129;44.810;10.334;2023-04-10T14:58:06;2.35;;;1.90;;
45392;SDS011;31129;44.810;10.334;2023-04-10T15:00:33;3.33;;;2.00;;
45392;SDS011;31129;44.810;10.334;2023-04-10T15:02:58;2.47;;;1.77;;
45392;SDS011;31129;44.810;10.334;2023-04-10T15:05:24;4.60;;;2.10;;
45392;SDS011;31129;44.810;10.334;2023-04-10T15:07:50;2.50;;;2.00;;
45392;SDS011;31129;44.810;10.334;2023-04-10T15:10:16;4.18;;;2.30;;
45392;SDS011;31129;44.810;10.334;2023-04-10T15:12:41;3.40;;;2.10;;
45392;SDS011;31129;44.810;10.334;2023-04-10T15:15:07;2.20;;;2.00;;
45392;SDS011;31129;44.810;10.334;2023-04-10T15:17:32;3.17;;;2.15;;
45392;SDS011;31129;44.810;10.334;2023-04-10T15:19:58;2.10;;;1.70;;
45392;SDS011;31129;44.810;10.334;2023-04-10T15:22:24;3.17;;;1.90;;
45392;SDS011;31129;44.810;10.334;2023-04-10T15:24:50;3.38;;;1.90;;
45392;SDS011;31129;44.810;10.334;2023-04-10T15:27:15;2.20;;;2.00;;
45392;SDS011;31129;44.810;10.334;2023-04-10T15:29:43;2.13;;;1.92;;
45392;SDS011;31129;44.810;10.334;2023-04-10T15:32:14;2.38;;;2.05;;
45392;SDS011;31129;44.810;10.334;2023-04-10T15:34:40;2.90;;;1.80;;
45392;SDS011;31129;44.810;10.334;2023-04-10T15:37:05;2.53;;;2.10;;
45392;SDS011;31129;44.810;10.334;2023-04-10T15:39:30;2.28;;;1.83;;
45392;SDS011;31129;44.810;10.334;2023-04-10T15:41:56;7.03;;;1.70;;
45392;SDS011;31129;44.810;10.334;2023-04-10T15:44:24;2.40;;;1.92;;
45392;SDS011;31129;44.810;10.334;2023-04-10T15:46:51;3.05;;;2.20;;
45392;SDS011;31129;44.810;10.334;2023-04-10T15:49:17;4.18;;;2.08;;